createdAt,value
2019-03-30T00:02:12.443Z,7.06
2019-03-30T00:04:46.068Z,7.02
2019-03-30T00:07:19.737Z,6.97
2019-03-30T00:09:53.365Z,6.94
2019-03-30T00:12:26.991Z,6.91
2019-03-30T00:15:00.661Z,6.85
2019-03-30T00:17:35.043Z,6.80
2019-03-30T00:20:08.866Z,6.74
2019-03-30T00:22:42.505Z,6.69
2019-03-30T00:25:16.233Z,6.64
2019-03-30T00:27:49.908Z,6.59
2019-03-30T00:30:23.562Z,6.51
2019-03-30T00:32:57.040Z,6.46
2019-03-30T00:35:30.586Z,6.39
2019-03-30T00:38:04.097Z,6.27
2019-03-30T00:40:39.600Z,6.21
2019-03-30T00:43:32.503Z,6.17
2019-03-30T00:46:19.313Z,6.11
2019-03-30T00:49:10.075Z,6.10
2019-03-30T00:51:56.329Z,6.10
2019-03-30T00:54:44.317Z,6.09
2019-03-30T00:57:31.079Z,6.04
2019-03-30T01:00:18.298Z,5.99
2019-03-30T01:02:53.957Z,5.91
2019-03-30T01:05:29.418Z,5.89
2019-03-30T01:08:04.857Z,5.85
2019-03-30T01:10:40.365Z,5.84
2019-03-30T01:13:27.307Z,5.86
2019-03-30T01:16:21.200Z,5.85
2019-03-30T01:19:09.119Z,5.84
2019-03-30T01:21:45.718Z,5.79
2019-03-30T01:24:21.342Z,5.79
2019-03-30T01:27:08.367Z,5.81
2019-03-30T01:30:03.769Z,5.82
2019-03-30T01:32:39.365Z,5.71
2019-03-30T01:35:15.096Z,5.68
2019-03-30T01:37:50.294Z,5.65
2019-03-30T01:40:27.376Z,5.63
2019-03-30T01:43:14.457Z,5.65
2019-03-30T01:46:02.104Z,5.60
2019-03-30T01:48:50.605Z,5.52
2019-03-30T01:51:44.013Z,5.48
2019-03-30T01:54:31.357Z,5.43
2019-03-30T01:57:23.935Z,5.41
2019-03-30T02:00:12.661Z,5.38
2019-03-30T02:02:48.182Z,5.34
2019-03-30T02:05:41.126Z,5.31
2019-03-30T02:08:36.364Z,5.28
2019-03-30T02:11:14.096Z,5.21
2019-03-30T02:14:00.829Z,5.21
2019-03-30T02:16:47.809Z,5.15
2019-03-30T02:19:34.576Z,5.07
2019-03-30T02:22:08.165Z,5.01
2019-03-30T02:24:41.794Z,5.02
2019-03-30T02:27:15.466Z,5.01
2019-03-30T02:29:49.203Z,4.98
2019-03-30T02:32:22.792Z,4.95
2019-03-30T02:34:56.553Z,4.94
2019-03-30T02:37:30.168Z,4.95
2019-03-30T02:40:03.821Z,4.93
2019-03-30T02:42:37.449Z,4.91
2019-03-30T02:45:11.151Z,4.84
2019-03-30T02:47:44.905Z,4.80
2019-03-30T02:50:18.531Z,4.74
2019-03-30T02:52:52.451Z,4.70
2019-03-30T02:55:26.243Z,4.68
2019-03-30T02:57:59.924Z,4.65
2019-03-30T03:00:33.598Z,4.63
2019-03-30T03:03:07.402Z,4.63
2019-03-30T03:05:41.052Z,4.61
2019-03-30T03:08:14.823Z,4.62
2019-03-30T03:10:49.527Z,4.62
2019-03-30T03:13:23.171Z,4.55
2019-03-30T03:15:56.786Z,4.53
2019-03-30T03:18:30.397Z,4.57
2019-03-30T03:21:07.777Z,4.53
2019-03-30T03:23:39.360Z,4.50
2019-03-30T03:26:12.961Z,4.49
2019-03-30T03:28:46.641Z,4.48
2019-03-30T03:31:20.315Z,4.45
2019-03-30T03:33:53.881Z,4.39
2019-03-30T03:36:28.359Z,4.36
2019-03-30T03:39:02.030Z,4.31
2019-03-30T03:41:36.861Z,4.28
2019-03-30T03:44:10.511Z,4.26
2019-03-30T03:46:44.193Z,4.23
2019-03-30T03:49:17.872Z,4.23
2019-03-30T03:51:51.785Z,4.20
2019-03-30T03:54:25.627Z,4.19
2019-03-30T03:57:01.346Z,4.19
2019-03-30T03:59:37.464Z,4.18
2019-03-30T04:02:12.385Z,4.16
2019-03-30T04:04:47.930Z,4.18
2019-03-30T04:07:23.352Z,4.15
2019-03-30T04:10:00.907Z,4.09
2019-03-30T04:12:37.664Z,4.02
2019-03-30T04:15:14.982Z,3.96
2019-03-30T04:17:48.755Z,3.86
2019-03-30T04:20:25.346Z,3.76
2019-03-30T04:22:58.945Z,3.70
2019-03-30T04:25:32.563Z,3.69
2019-03-30T04:28:06.309Z,3.71
2019-03-30T04:30:40.031Z,3.70
2019-03-30T04:33:13.685Z,3.77
2019-03-30T04:35:47.402Z,3.76
2019-03-30T04:38:20.979Z,3.79
2019-03-30T04:40:54.640Z,3.81
2019-03-30T04:43:28.394Z,3.84
2019-03-30T04:46:02.066Z,3.85
2019-03-30T04:48:35.750Z,3.84
2019-03-30T04:51:09.374Z,3.83
2019-03-30T04:53:43.100Z,3.76
2019-03-30T04:56:16.697Z,3.74
2019-03-30T04:58:50.501Z,3.77
2019-03-30T05:01:24.474Z,3.86
2019-03-30T05:03:58.298Z,3.86
2019-03-30T05:06:31.996Z,3.85
2019-03-30T05:09:07.092Z,3.86
2019-03-30T05:11:40.827Z,3.85
2019-03-30T05:14:14.571Z,3.88
2019-03-30T05:16:48.307Z,3.88
2019-03-30T05:19:24.113Z,3.85
2019-03-30T05:22:11.121Z,3.86
2019-03-30T05:24:33.163Z,3.87
2019-03-30T05:27:06.872Z,3.89
2019-03-30T05:29:40.950Z,3.93
2019-03-30T05:32:14.713Z,3.95
2019-03-30T05:34:48.593Z,4.00
2019-03-30T05:37:22.205Z,4.06
2019-03-30T05:39:55.852Z,4.14
2019-03-30T05:42:29.584Z,4.21
2019-03-30T05:45:03.287Z,4.27
2019-03-30T05:47:36.908Z,4.28
2019-03-30T05:50:11.564Z,4.25
2019-03-30T05:52:45.282Z,4.28
2019-03-30T05:55:18.992Z,4.32
2019-03-30T05:57:52.613Z,4.35
2019-03-30T06:00:26.442Z,4.40
2019-03-30T06:03:02.894Z,4.47
2019-03-30T06:05:36.797Z,4.56
2019-03-30T06:08:10.484Z,4.68
2019-03-30T06:10:44.182Z,4.79
2019-03-30T06:13:17.866Z,4.85
2019-03-30T06:15:51.504Z,4.91
2019-03-30T06:18:25.164Z,4.93
2019-03-30T06:20:58.859Z,4.98
2019-03-30T06:23:32.602Z,5.09
2019-03-30T06:26:07.398Z,5.16
2019-03-30T06:28:41.136Z,5.28
2019-03-30T06:31:14.986Z,5.37
2019-03-30T06:33:48.753Z,5.45
2019-03-30T06:36:22.493Z,5.54
2019-03-30T06:38:56.134Z,5.67
2019-03-30T06:41:29.745Z,5.76
2019-03-30T06:44:03.425Z,5.86
2019-03-30T06:46:39.539Z,5.95
2019-03-30T06:49:12.739Z,6.10
2019-03-30T06:51:46.729Z,6.24
2019-03-30T06:54:20.389Z,6.35
2019-03-30T06:56:54.152Z,6.44
2019-03-30T06:59:27.832Z,6.55
2019-03-30T07:02:01.690Z,6.60
2019-03-30T07:04:35.331Z,6.74
2019-03-30T07:07:10.998Z,6.89
2019-03-30T07:09:48.324Z,7.06
2019-03-30T07:12:25.544Z,7.18
2019-03-30T07:15:02.178Z,7.33
2019-03-30T07:17:47.003Z,7.52
2019-03-30T07:20:31.495Z,7.69
2019-03-30T07:23:11.895Z,7.84
2019-03-30T07:25:41.076Z,8.01
2019-03-30T07:28:32.377Z,8.10
2019-03-30T07:31:23.839Z,8.27
2019-03-30T07:33:57.503Z,8.48
2019-03-30T07:36:31.376Z,8.70
2019-03-30T07:39:05.828Z,8.89
2019-03-30T07:41:42.308Z,9.11
2019-03-30T07:44:18.757Z,9.29
2019-03-30T07:46:53.038Z,9.49
2019-03-30T07:49:26.898Z,9.66
2019-03-30T07:52:00.880Z,9.93
2019-03-30T07:54:35.243Z,10.18
2019-03-30T07:57:16.902Z,10.38
2019-03-30T08:00:04.271Z,10.60
2019-03-30T08:02:56.328Z,10.86
2019-03-30T08:05:30.294Z,11.13
2019-03-30T08:08:04.630Z,11.34
2019-03-30T08:10:39.032Z,11.62
2019-03-30T08:13:13.158Z,11.89
2019-03-30T08:15:47.543Z,12.19
2019-03-30T08:18:21.499Z,12.46
2019-03-30T08:20:55.176Z,12.66
2019-03-30T08:23:39.736Z,12.94
2019-03-30T08:26:04.396Z,13.15
2019-03-30T08:28:38.105Z,13.31
2019-03-30T08:31:12.036Z,13.74
2019-03-30T08:33:45.825Z,14.13
2019-03-30T08:36:19.751Z,14.32
2019-03-30T08:38:53.394Z,14.97
2019-03-30T08:41:27.169Z,15.49
2019-03-30T08:44:00.900Z,15.84
2019-03-30T08:46:34.547Z,16.47
2019-03-30T08:49:09.456Z,16.54
2019-03-30T08:51:43.255Z,17.22
2019-03-30T08:54:16.998Z,17.27
2019-03-30T08:56:50.683Z,17.97
2019-03-30T08:59:24.438Z,18.40
2019-03-30T09:01:59.340Z,18.60
2019-03-30T09:04:33.025Z,18.29
2019-03-30T09:07:16.031Z,18.57
2019-03-30T09:09:49.802Z,18.77
2019-03-30T09:12:25.174Z,18.91
2019-03-30T09:14:59.043Z,19.59
2019-03-30T09:17:37.153Z,19.73
2019-03-30T09:20:15.100Z,19.61
2019-03-30T09:22:49.160Z,19.59
2019-03-30T09:25:22.774Z,19.25
2019-03-30T09:27:56.353Z,19.41
2019-03-30T09:30:30.950Z,19.36
2019-03-30T09:33:04.736Z,18.86
2019-03-30T09:35:38.450Z,18.80
2019-03-30T09:38:14.784Z,19.18
2019-03-30T09:40:47.771Z,19.64
2019-03-30T09:43:23.533Z,19.98
2019-03-30T09:45:57.497Z,20.24
2019-03-30T09:48:34.343Z,20.07
2019-03-30T09:51:12.142Z,20.42
2019-03-30T09:53:49.150Z,20.60
2019-03-30T09:56:24.094Z,20.74
2019-03-30T09:59:05.472Z,20.98
2019-03-30T10:01:39.201Z,21.53
2019-03-30T10:04:12.999Z,21.68
2019-03-30T10:06:46.726Z,21.96
2019-03-30T10:09:22.401Z,21.78
2019-03-30T10:11:58.868Z,21.75
2019-03-30T10:14:32.964Z,21.94
2019-03-30T10:17:07.773Z,22.16
2019-03-30T10:19:41.412Z,21.43
2019-03-30T10:22:16.569Z,21.25
2019-03-30T10:24:52.072Z,21.51
2019-03-30T10:27:26.087Z,21.48
2019-03-30T10:30:09.198Z,21.45
2019-03-30T10:32:42.929Z,21.34
2019-03-30T10:35:20.410Z,21.25
2019-03-30T10:37:54.436Z,20.92
2019-03-30T10:40:28.197Z,21.04
2019-03-30T10:43:05.311Z,21.19
2019-03-30T10:45:41.889Z,21.05
2019-03-30T10:48:19.860Z,21.05
2019-03-30T10:50:53.754Z,20.46
2019-03-30T10:53:28.248Z,20.41
2019-03-30T10:56:01.982Z,20.65
2019-03-30T10:58:37.296Z,20.52
2019-03-30T11:01:12.846Z,20.06
2019-03-30T11:03:46.560Z,20.41
2019-03-30T11:06:20.326Z,20.41
2019-03-30T11:08:56.879Z,20.63
2019-03-30T11:11:30.833Z,20.62
2019-03-30T11:14:07.749Z,20.61
2019-03-30T11:16:46.559Z,20.81
2019-03-30T11:19:20.645Z,20.95
2019-03-30T11:21:57.744Z,20.98
2019-03-30T11:24:33.217Z,20.96
2019-03-30T11:27:07.287Z,21.08
2019-03-30T11:29:41.716Z,21.07
2019-03-30T11:32:28.354Z,20.94
2019-03-30T11:35:08.443Z,21.08
2019-03-30T11:37:43.025Z,20.70
2019-03-30T11:40:21.186Z,20.29
2019-03-30T11:42:59.203Z,20.54
2019-03-30T11:45:35.905Z,20.76
2019-03-30T11:48:11.267Z,20.53
2019-03-30T11:50:44.949Z,20.50
2019-03-30T11:53:18.881Z,20.55
2019-03-30T11:55:52.870Z,20.57
2019-03-30T11:58:26.575Z,20.53
2019-03-30T12:01:00.902Z,20.26
2019-03-30T12:03:34.740Z,20.10
2019-03-30T12:06:10.588Z,19.91
2019-03-30T12:08:45.711Z,19.84
2019-03-30T12:11:20.016Z,19.84
2019-03-30T12:13:54.018Z,19.82
2019-03-30T12:16:28.591Z,19.94
2019-03-30T12:19:02.672Z,19.97
2019-03-30T12:21:36.523Z,19.98
2019-03-30T12:24:10.276Z,19.94
2019-03-30T12:26:44.055Z,20.05
2019-03-30T12:29:17.909Z,20.28
2019-03-30T12:31:51.615Z,20.27
2019-03-30T12:34:25.341Z,20.11
2019-03-30T12:36:59.009Z,20.36
2019-03-30T12:39:32.813Z,20.42
2019-03-30T12:42:06.490Z,20.30
2019-03-30T12:44:40.257Z,20.01
2019-03-30T12:47:14.560Z,19.79
2019-03-30T12:49:48.236Z,19.79
2019-03-30T12:52:22.046Z,19.86
2019-03-30T12:54:55.643Z,19.84
2019-03-30T12:57:29.393Z,19.91
2019-03-30T13:00:02.995Z,19.68
2019-03-30T13:02:36.754Z,19.72
2019-03-30T13:05:10.538Z,19.76
2019-03-30T13:07:44.405Z,19.84
2019-03-30T13:10:19.539Z,19.72
2019-03-30T13:12:53.297Z,19.70
2019-03-30T13:15:26.947Z,19.79
2019-03-30T13:18:00.601Z,19.75
2019-03-30T13:20:34.397Z,19.69
2019-03-30T13:23:08.049Z,19.62
2019-03-30T13:25:41.733Z,19.53
2019-03-30T13:28:15.687Z,19.28
2019-03-30T13:30:49.325Z,19.06
2019-03-30T13:33:23.023Z,18.93
2019-03-30T13:35:56.930Z,18.75
2019-03-30T13:38:30.767Z,18.65
2019-03-30T13:41:04.710Z,18.64
2019-03-30T13:43:38.353Z,18.65
2019-03-30T13:46:12.115Z,18.66
2019-03-30T13:48:45.914Z,18.55
2019-03-30T13:51:19.543Z,18.43
2019-03-30T13:53:53.252Z,18.41
2019-03-30T13:56:26.982Z,18.34
2019-03-30T13:59:00.818Z,18.06
2019-03-30T14:01:34.562Z,18.11
2019-03-30T14:04:08.199Z,18.06
2019-03-30T14:06:41.977Z,18.04
2019-03-30T14:09:17.351Z,18.03
2019-03-30T14:11:51.135Z,18.03
2019-03-30T14:14:24.750Z,17.98
2019-03-30T14:16:58.658Z,17.93
2019-03-30T14:19:32.348Z,17.88
2019-03-30T14:22:06.044Z,17.86
2019-03-30T14:24:46.644Z,17.81
2019-03-30T14:27:20.266Z,17.79
2019-03-30T14:29:54.497Z,17.72
2019-03-30T14:32:28.247Z,17.68
2019-03-30T14:35:01.895Z,17.61
2019-03-30T14:37:35.524Z,17.60
2019-03-30T14:40:10.707Z,17.60
2019-03-30T14:42:45.509Z,17.56
2019-03-30T14:45:19.556Z,17.53
2019-03-30T14:47:53.358Z,17.55
2019-03-30T14:50:28.066Z,17.59
2019-03-30T14:53:02.018Z,17.58
2019-03-30T14:55:39.312Z,17.52
2019-03-30T14:58:11.101Z,17.52
2019-03-30T15:00:44.861Z,17.50
2019-03-30T15:03:18.539Z,17.48
2019-03-30T15:05:52.202Z,17.43
2019-03-30T15:08:25.977Z,17.35
2019-03-30T15:10:59.867Z,17.33
2019-03-30T15:13:33.552Z,17.32
2019-03-30T15:16:08.302Z,17.31
2019-03-30T15:18:44.422Z,17.24
2019-03-30T15:21:18.205Z,17.22
2019-03-30T15:23:51.883Z,17.21
2019-03-30T15:26:25.559Z,17.16
2019-03-30T15:28:59.287Z,17.14
2019-03-30T15:31:32.909Z,17.08
2019-03-30T15:34:06.536Z,17.03
2019-03-30T15:36:40.305Z,17.02
2019-03-30T15:39:14.023Z,17.00
2019-03-30T15:41:47.729Z,17.00
2019-03-30T15:44:21.443Z,16.95
2019-03-30T15:46:56.571Z,16.94
2019-03-30T15:49:30.208Z,16.91
2019-03-30T15:52:13.869Z,16.89
2019-03-30T15:54:39.316Z,16.86
2019-03-30T15:57:14.551Z,16.83
2019-03-30T15:59:48.435Z,16.81
2019-03-30T16:02:22.002Z,16.79
2019-03-30T16:04:55.662Z,16.74
2019-03-30T16:07:31.043Z,16.70
2019-03-30T16:10:04.729Z,16.64
2019-03-30T16:12:38.326Z,16.59
2019-03-30T16:15:12.114Z,16.54
2019-03-30T16:17:45.835Z,16.49
2019-03-30T16:20:19.619Z,16.45
2019-03-30T16:22:53.303Z,16.41
2019-03-30T16:25:29.457Z,16.36
2019-03-30T16:28:03.102Z,16.33
2019-03-30T16:30:36.848Z,16.28
2019-03-30T16:33:10.528Z,16.22
2019-03-30T16:35:44.291Z,16.17
2019-03-30T16:38:17.969Z,16.12
2019-03-30T16:40:51.613Z,16.05
2019-03-30T16:43:25.212Z,16.00
2019-03-30T16:45:59.040Z,15.95
2019-03-30T16:48:33.127Z,15.91
2019-03-30T16:51:06.878Z,15.86
2019-03-30T16:53:40.553Z,15.81
2019-03-30T16:56:14.297Z,15.78
2019-03-30T16:58:48.011Z,15.74
2019-03-30T17:01:21.776Z,15.69
2019-03-30T17:03:55.391Z,15.61
2019-03-30T17:06:30.199Z,15.54
2019-03-30T17:09:05.219Z,15.47
2019-03-30T17:11:39.218Z,15.42
2019-03-30T17:14:13.024Z,15.36
2019-03-30T17:16:49.043Z,15.34
2019-03-30T17:19:23.043Z,15.26
2019-03-30T17:21:56.737Z,15.18
2019-03-30T17:24:30.807Z,15.07
2019-03-30T17:27:04.542Z,14.98
2019-03-30T17:29:38.404Z,14.87
2019-03-30T17:32:12.200Z,14.75
2019-03-30T17:34:45.997Z,14.64
2019-03-30T17:37:19.740Z,14.57
2019-03-30T17:39:53.753Z,14.44
2019-03-30T17:42:27.456Z,14.31
2019-03-30T17:45:02.219Z,14.19
2019-03-30T17:47:37.040Z,14.08
2019-03-30T17:50:12.819Z,13.97
2019-03-30T17:52:46.528Z,13.86
2019-03-30T17:55:33.014Z,13.80
2019-03-30T17:57:55.876Z,13.73
2019-03-30T18:00:29.948Z,13.62
2019-03-30T18:03:03.898Z,13.50
2019-03-30T18:05:37.765Z,13.40
2019-03-30T18:08:12.823Z,13.29
2019-03-30T18:10:46.634Z,13.20
2019-03-30T18:13:20.390Z,13.12
2019-03-30T18:15:54.124Z,13.04
2019-03-30T18:18:27.814Z,12.96
2019-03-30T18:21:01.615Z,12.88
2019-03-30T18:23:35.373Z,12.82
2019-03-30T18:26:10.696Z,12.75
2019-03-30T18:28:44.508Z,12.68
2019-03-30T18:31:19.068Z,12.58
2019-03-30T18:33:53.157Z,12.49
2019-03-30T18:36:27.911Z,12.44
2019-03-30T18:39:09.505Z,12.38
2019-03-30T18:41:39.074Z,12.32
2019-03-30T18:44:12.781Z,12.26
2019-03-30T18:46:46.559Z,12.17
2019-03-30T18:49:20.287Z,12.08
2019-03-30T18:51:54.783Z,12.00
2019-03-30T18:54:28.606Z,11.91
2019-03-30T18:57:02.618Z,11.85
2019-03-30T18:59:36.433Z,11.78
2019-03-30T19:02:10.200Z,11.70
2019-03-30T19:04:43.981Z,11.66
2019-03-30T19:07:17.802Z,11.59
2019-03-30T19:09:57.901Z,11.54
2019-03-30T19:12:36.901Z,11.48
2019-03-30T19:15:11.603Z,11.43
2019-03-30T19:17:46.230Z,11.38
2019-03-30T19:20:21.799Z,11.32
2019-03-30T19:22:55.872Z,11.28
2019-03-30T19:25:30.997Z,11.23
2019-03-30T19:28:05.908Z,11.18
2019-03-30T19:30:42.219Z,11.13
2019-03-30T19:33:15.489Z,11.05
2019-03-30T19:35:49.441Z,10.95
2019-03-30T19:38:23.480Z,10.80
2019-03-30T19:40:57.577Z,10.79
2019-03-30T19:43:32.044Z,10.72
2019-03-30T19:46:26.740Z,10.68
2019-03-30T19:49:10.178Z,10.65
2019-03-30T19:51:54.618Z,10.62
2019-03-30T19:54:32.747Z,10.54
2019-03-30T19:57:07.146Z,10.44
2019-03-30T19:59:41.020Z,10.40
2019-03-30T20:02:15.595Z,10.33
2019-03-30T20:04:49.942Z,10.35
2019-03-30T20:07:29.945Z,10.35
2019-03-30T20:10:04.356Z,10.35
2019-03-30T20:12:38.945Z,10.36
2019-03-30T20:15:41.761Z,10.38
2019-03-30T20:18:16.511Z,10.39
2019-03-30T20:20:50.783Z,10.35
2019-03-30T20:23:27.433Z,10.31
2019-03-30T20:26:01.628Z,10.33
2019-03-30T20:28:36.275Z,10.33
2019-03-30T20:31:10.773Z,10.34
2019-03-30T20:33:46.723Z,10.32
2019-03-30T20:36:21.005Z,10.30
2019-03-30T20:38:55.124Z,10.26
2019-03-30T20:41:29.336Z,10.22
2019-03-30T20:44:03.442Z,10.19
2019-03-30T20:46:37.524Z,10.14
2019-03-30T20:49:11.584Z,10.07
2019-03-30T20:51:46.021Z,10.00
2019-03-30T20:54:20.203Z,9.94
2019-03-30T20:56:54.590Z,9.87
2019-03-30T20:59:39.263Z,9.80
2019-03-30T21:02:12.925Z,9.75
2019-03-30T21:04:51.920Z,9.69
2019-03-30T21:07:26.058Z,9.64
2019-03-30T21:10:01.535Z,9.53
2019-03-30T21:12:35.346Z,9.47
2019-03-30T21:15:09.796Z,9.41
2019-03-30T21:17:43.754Z,9.30
2019-03-30T21:20:17.677Z,9.25
2019-03-30T21:22:53.360Z,9.21
2019-03-30T21:25:27.248Z,9.14
2019-03-30T21:28:02.606Z,9.08
2019-03-30T21:30:37.304Z,9.03
2019-03-30T21:33:12.590Z,9.00
2019-03-30T21:35:46.725Z,8.93
2019-03-30T21:38:20.640Z,8.92
2019-03-30T21:40:57.016Z,8.89
2019-03-30T21:43:30.879Z,8.82
2019-03-30T21:46:04.816Z,8.76
2019-03-30T21:48:38.718Z,8.69
2019-03-30T21:51:12.395Z,8.64
2019-03-30T21:53:48.167Z,8.63
2019-03-30T21:56:22.096Z,8.58
2019-03-30T21:58:58.329Z,8.53
2019-03-30T22:01:34.154Z,8.47
2019-03-30T22:04:07.877Z,8.46
2019-03-30T22:06:41.935Z,8.46
2019-03-30T22:09:15.842Z,8.43
2019-03-30T22:11:49.852Z,8.40
2019-03-30T22:14:23.773Z,8.36
2019-03-30T22:16:57.691Z,8.38
2019-03-30T22:19:31.493Z,8.36
2019-03-30T22:22:05.177Z,8.35
2019-03-30T22:24:38.995Z,8.34
2019-03-30T22:27:12.887Z,8.32
2019-03-30T22:29:48.190Z,8.31
2019-03-30T22:32:21.958Z,8.29
2019-03-30T22:34:55.707Z,8.26
2019-03-30T22:37:29.515Z,8.19
2019-03-30T22:40:03.228Z,8.15
2019-03-30T22:42:36.900Z,8.07
2019-03-30T22:45:10.887Z,7.99
2019-03-30T22:47:44.697Z,7.94
2019-03-30T22:50:18.572Z,7.89
2019-03-30T22:52:52.259Z,7.85
2019-03-30T22:55:26.156Z,7.79
2019-03-30T22:58:00.213Z,7.76
2019-03-30T23:00:51.589Z,7.70
2019-03-30T23:03:25.728Z,7.69
2019-03-30T23:05:59.968Z,7.67
2019-03-30T23:08:33.683Z,7.66
2019-03-30T23:11:07.324Z,7.67
2019-03-30T23:13:41.053Z,7.65
2019-03-30T23:16:14.870Z,7.64
2019-03-30T23:18:48.626Z,7.59
2019-03-30T23:21:22.509Z,7.55
2019-03-30T23:23:56.752Z,7.54
2019-03-30T23:26:30.488Z,7.51
2019-03-30T23:29:04.240Z,7.45
2019-03-30T23:31:38.013Z,7.43
2019-03-30T23:34:11.793Z,7.42
2019-03-30T23:36:45.537Z,7.44
2019-03-30T23:39:19.328Z,7.41
2019-03-30T23:41:53.184Z,7.43
2019-03-30T23:44:26.943Z,7.41
2019-03-30T23:47:00.706Z,7.35
2019-03-30T23:49:34.616Z,7.35
2019-03-30T23:52:08.321Z,7.36
2019-03-30T23:54:42.015Z,7.32
2019-03-30T23:57:15.981Z,7.34
2019-03-30T23:59:49.689Z,7.34
